createdAt,value
2022-10-18T00:00:07.261Z,7.36
2022-10-18T00:02:33.835Z,7.38
2022-10-18T00:05:00.443Z,7.36
2022-10-18T00:07:26.829Z,7.34
2022-10-18T00:09:53.225Z,7.33
2022-10-18T00:12:19.612Z,7.34
2022-10-18T00:14:48.182Z,7.29
2022-10-18T00:17:14.589Z,7.24
2022-10-18T00:19:40.952Z,7.19
2022-10-18T00:22:07.350Z,7.17
2022-10-18T00:24:33.714Z,7.14
2022-10-18T00:27:00.088Z,7.11
2022-10-18T00:29:26.490Z,7.12
2022-10-18T00:31:52.874Z,7.17
2022-10-18T00:34:19.252Z,7.19
2022-10-18T00:36:45.845Z,7.18
2022-10-18T00:39:15.679Z,7.16
2022-10-18T00:41:42.228Z,7.16
2022-10-18T00:44:11.602Z,7.14
2022-10-18T00:46:39.222Z,7.12
2022-10-18T00:49:07.903Z,7.11
2022-10-18T00:51:38.359Z,7.09
2022-10-18T00:54:04.884Z,7.08
2022-10-18T00:56:33.308Z,7.05
2022-10-18T00:58:59.820Z,7.03
2022-10-18T01:01:28.389Z,7.02
2022-10-18T01:03:55.899Z,6.98
2022-10-18T01:06:23.012Z,7.00
2022-10-18T01:09:04.760Z,6.99
2022-10-18T01:11:44.310Z,6.94
2022-10-18T01:14:25.921Z,6.91
2022-10-18T01:16:58.557Z,6.87
2022-10-18T01:19:38.753Z,6.81
2022-10-18T01:22:15.015Z,6.76
2022-10-18T01:24:53.660Z,6.75
2022-10-18T01:27:33.715Z,6.76
2022-10-18T01:30:12.058Z,6.79
2022-10-18T01:32:44.794Z,6.76
2022-10-18T01:35:14.141Z,6.71
2022-10-18T01:37:41.949Z,6.66
2022-10-18T01:40:09.276Z,6.64
2022-10-18T01:42:35.655Z,6.63
2022-10-18T01:45:03.580Z,6.61
2022-10-18T01:47:31.147Z,6.61
2022-10-18T01:50:02.938Z,6.64
2022-10-18T01:52:29.664Z,6.62
2022-10-18T01:54:56.884Z,6.58
2022-10-18T01:57:32.369Z,6.56
2022-10-18T02:00:04.757Z,6.54
2022-10-18T02:02:40.304Z,6.53
2022-10-18T02:05:17.850Z,6.54
2022-10-18T02:08:12.686Z,6.56
2022-10-18T02:10:50.474Z,6.57
2022-10-18T02:13:19.076Z,6.55
2022-10-18T02:15:47.300Z,6.55
2022-10-18T02:18:17.885Z,6.53
2022-10-18T02:20:45.577Z,6.50
2022-10-18T02:23:13.883Z,6.49
2022-10-18T02:25:40.698Z,6.52
2022-10-18T02:28:07.174Z,6.52
2022-10-18T02:30:37.542Z,6.51
2022-10-18T02:33:12.954Z,6.49
2022-10-18T02:35:46.842Z,6.48
2022-10-18T02:38:14.585Z,6.47
2022-10-18T02:40:40.990Z,6.47
2022-10-18T02:43:07.381Z,6.46
2022-10-18T02:45:33.846Z,6.45
2022-10-18T02:48:00.229Z,6.44
2022-10-18T02:50:26.630Z,6.42
2022-10-18T02:52:53.066Z,6.46
2022-10-18T02:55:19.759Z,6.45
2022-10-18T02:57:46.201Z,6.44
2022-10-18T03:00:12.884Z,6.45
2022-10-18T03:02:39.271Z,6.46
2022-10-18T03:05:05.760Z,6.43
2022-10-18T03:07:32.455Z,6.42
2022-10-18T03:09:59.002Z,6.39
2022-10-18T03:12:25.382Z,6.37
2022-10-18T03:14:51.754Z,6.37
2022-10-18T03:17:18.150Z,6.36
2022-10-18T03:19:44.518Z,6.35
2022-10-18T03:22:10.889Z,6.36
2022-10-18T03:24:37.307Z,6.35
2022-10-18T03:27:03.794Z,6.37
2022-10-18T03:29:30.185Z,6.37
2022-10-18T03:31:56.551Z,6.38
2022-10-18T03:34:22.948Z,6.38
2022-10-18T03:36:49.350Z,6.39
2022-10-18T03:39:15.805Z,6.39
2022-10-18T03:41:42.164Z,6.40
2022-10-18T03:44:08.610Z,6.42
2022-10-18T03:46:35.005Z,6.42
2022-10-18T03:49:01.405Z,6.44
2022-10-18T03:51:27.771Z,6.43
2022-10-18T03:53:54.142Z,6.45
2022-10-18T03:56:20.548Z,6.46
2022-10-18T03:58:46.928Z,6.48
2022-10-18T04:01:13.363Z,6.47
2022-10-18T04:03:39.770Z,6.45
2022-10-18T04:06:07.879Z,6.46
2022-10-18T04:08:34.260Z,6.45
2022-10-18T04:11:04.352Z,6.44
2022-10-18T04:13:30.733Z,6.43
2022-10-18T04:15:57.111Z,6.43
2022-10-18T04:18:23.474Z,6.45
2022-10-18T04:20:49.865Z,6.48
2022-10-18T04:23:16.230Z,6.50
2022-10-18T04:28:10.146Z,6.49
2022-10-18T04:30:36.501Z,6.47
2022-10-18T04:33:02.958Z,6.43
2022-10-18T04:35:29.375Z,6.43
2022-10-18T04:37:55.788Z,6.42
2022-10-18T04:40:22.221Z,6.44
2022-10-18T04:42:48.623Z,6.43
2022-10-18T04:45:14.996Z,6.41
2022-10-18T04:47:41.374Z,6.38
2022-10-18T04:50:07.958Z,6.36
2022-10-18T04:52:34.310Z,6.35
2022-10-18T04:55:00.688Z,6.35
2022-10-18T04:57:27.100Z,6.39
2022-10-18T04:59:53.627Z,6.33
2022-10-18T05:02:20.022Z,6.24
2022-10-18T05:04:46.440Z,6.24
2022-10-18T05:07:12.860Z,6.24
2022-10-18T05:09:39.260Z,6.26
2022-10-18T05:12:05.723Z,6.26
2022-10-18T05:14:32.133Z,6.27
2022-10-18T05:16:58.583Z,6.33
2022-10-18T05:19:24.948Z,6.32
2022-10-18T05:21:51.468Z,6.31
2022-10-18T05:24:17.852Z,6.30
2022-10-18T05:26:44.226Z,6.29
2022-10-18T05:29:10.757Z,6.33
2022-10-18T05:31:37.219Z,6.34
2022-10-18T05:34:03.731Z,6.33
2022-10-18T05:36:30.198Z,6.29
2022-10-18T05:38:59.645Z,6.33
2022-10-18T05:41:28.932Z,6.36
2022-10-18T05:43:55.366Z,6.37
2022-10-18T05:46:21.741Z,6.41
2022-10-18T05:48:50.052Z,6.42
2022-10-18T05:51:16.685Z,6.45
2022-10-18T05:53:43.058Z,6.45
2022-10-18T05:56:11.855Z,6.47
2022-10-18T05:58:38.941Z,6.44
2022-10-18T06:01:05.906Z,6.47
2022-10-18T06:03:32.562Z,6.45
2022-10-18T06:06:02.672Z,6.45
2022-10-18T06:08:29.103Z,6.43
2022-10-18T06:10:55.567Z,6.43
2022-10-18T06:13:21.979Z,6.49
2022-10-18T06:15:48.373Z,6.52
2022-10-18T06:18:14.747Z,6.52
2022-10-18T06:20:41.143Z,6.56
2022-10-18T06:23:07.530Z,6.59
2022-10-18T06:25:33.912Z,6.59
2022-10-18T06:28:00.286Z,6.58
2022-10-18T06:30:26.656Z,6.58
2022-10-18T06:32:53.032Z,6.60
2022-10-18T06:35:19.407Z,6.64
2022-10-18T06:37:45.837Z,6.67
2022-10-18T06:40:12.327Z,6.66
2022-10-18T06:42:38.730Z,6.68
2022-10-18T06:45:05.384Z,6.69
2022-10-18T06:47:31.764Z,6.70
2022-10-18T06:49:58.139Z,6.70
2022-10-18T06:52:25.740Z,6.69
2022-10-18T06:54:52.756Z,6.71
2022-10-18T06:57:20.031Z,6.71
2022-10-18T06:59:46.453Z,6.72
2022-10-18T07:02:17.337Z,6.74
2022-10-18T07:04:43.901Z,6.80
2022-10-18T07:07:10.393Z,6.85
2022-10-18T07:09:36.916Z,6.89
2022-10-18T07:12:03.393Z,6.88
2022-10-18T07:14:29.758Z,6.87
2022-10-18T07:16:58.464Z,6.88
2022-10-18T07:19:24.814Z,6.89
2022-10-18T07:21:51.173Z,6.89
2022-10-18T07:24:17.575Z,6.90
2022-10-18T07:26:44.010Z,6.93
2022-10-18T07:29:11.824Z,6.94
2022-10-18T07:31:39.152Z,6.99
2022-10-18T07:34:06.303Z,7.02
2022-10-18T07:36:32.728Z,7.03
2022-10-18T07:38:59.706Z,7.05
2022-10-18T07:41:26.220Z,7.07
2022-10-18T07:43:52.936Z,7.11
2022-10-18T07:46:20.180Z,7.12
2022-10-18T07:48:46.577Z,7.15
2022-10-18T07:51:13.058Z,7.20
2022-10-18T07:53:39.624Z,7.23
2022-10-18T07:56:09.439Z,7.28
2022-10-18T07:58:36.355Z,7.33
2022-10-18T08:01:06.513Z,7.42
2022-10-18T08:03:32.989Z,7.47
2022-10-18T08:05:59.488Z,7.50
2022-10-18T08:08:26.040Z,7.56
2022-10-18T08:10:52.730Z,7.62
2022-10-18T08:13:19.409Z,7.70
2022-10-18T08:15:45.807Z,7.75
2022-10-18T08:18:12.231Z,7.84
2022-10-18T08:20:42.474Z,7.90
2022-10-18T08:23:08.997Z,7.97
2022-10-18T08:28:02.731Z,8.12
2022-10-18T08:30:29.127Z,8.19
2022-10-18T08:32:55.545Z,8.26
2022-10-18T08:35:21.997Z,8.34
2022-10-18T08:37:48.589Z,8.42
2022-10-18T08:40:15.633Z,8.49
2022-10-18T08:42:41.993Z,8.60
2022-10-18T08:45:17.749Z,8.68
2022-10-18T08:47:57.862Z,8.79
2022-10-18T08:50:27.095Z,8.87
2022-10-18T08:52:58.532Z,8.97
2022-10-18T08:55:31.000Z,9.05
2022-10-18T08:57:58.171Z,9.13
2022-10-18T09:00:25.567Z,9.22
2022-10-18T09:02:56.273Z,9.30
2022-10-18T09:05:25.194Z,9.41
2022-10-18T09:07:57.414Z,9.51
2022-10-18T09:10:33.923Z,9.65
2022-10-18T09:13:16.921Z,9.77
2022-10-18T09:16:02.771Z,9.94
2022-10-18T09:18:41.367Z,10.07
2022-10-18T09:21:18.854Z,10.18
2022-10-18T09:23:54.380Z,10.31
2022-10-18T09:26:21.991Z,10.44
2022-10-18T09:29:07.016Z,10.56
2022-10-18T09:31:39.249Z,10.71
2022-10-18T09:34:10.298Z,10.86
2022-10-18T09:36:38.665Z,11.01
2022-10-18T09:39:09.686Z,11.14
2022-10-18T09:41:36.039Z,11.28
2022-10-18T09:44:06.830Z,11.40
2022-10-18T09:46:37.223Z,11.53
2022-10-18T09:49:22.380Z,11.67
2022-10-18T09:51:49.799Z,11.83
2022-10-18T09:54:22.083Z,11.97
2022-10-18T09:56:48.543Z,12.10
2022-10-18T09:59:33.718Z,12.25
2022-10-18T10:02:00.122Z,12.42
2022-10-18T10:04:26.812Z,12.56
2022-10-18T10:06:54.245Z,12.67
2022-10-18T10:09:29.424Z,12.79
2022-10-18T10:11:56.536Z,12.93
2022-10-18T10:14:27.472Z,13.05
2022-10-18T10:16:53.852Z,13.19
2022-10-18T10:19:23.592Z,13.30
2022-10-18T10:21:51.518Z,13.50
2022-10-18T10:24:20.970Z,13.74
2022-10-18T10:26:47.473Z,13.84
2022-10-18T10:29:44.119Z,13.95
2022-10-18T10:32:12.471Z,14.05
2022-10-18T10:34:42.341Z,14.20
2022-10-18T10:37:23.049Z,14.27
2022-10-18T10:40:17.818Z,14.47
2022-10-18T10:43:00.002Z,14.64
2022-10-18T10:45:55.353Z,14.85
2022-10-18T10:48:21.847Z,14.99
2022-10-18T10:50:55.413Z,15.06
2022-10-18T10:53:34.391Z,15.19
2022-10-18T10:56:01.696Z,15.35
2022-10-18T10:58:29.538Z,15.43
2022-10-18T11:00:56.565Z,15.49
2022-10-18T11:03:30.165Z,15.60
2022-10-18T11:05:58.239Z,15.76
2022-10-18T11:08:27.191Z,15.88
2022-10-18T11:10:56.373Z,15.98
2022-10-18T11:13:28.296Z,16.00
2022-10-18T11:16:01.692Z,16.07
2022-10-18T11:18:31.428Z,16.14
2022-10-18T11:21:07.891Z,16.17
2022-10-18T11:23:35.482Z,16.26
2022-10-18T11:26:04.860Z,16.34
2022-10-18T11:28:50.176Z,16.42
2022-10-18T11:31:35.366Z,16.46
2022-10-18T11:34:20.590Z,16.59
2022-10-18T11:37:27.007Z,16.66
2022-10-18T11:40:12.822Z,16.75
2022-10-18T11:42:48.068Z,16.80
2022-10-18T11:45:14.518Z,16.92
2022-10-18T11:47:45.571Z,17.00
2022-10-18T11:50:26.339Z,17.04
2022-10-18T11:53:01.861Z,17.10
2022-10-18T11:55:43.866Z,17.13
2022-10-18T11:58:28.875Z,17.16
2022-10-18T12:00:58.875Z,17.23
2022-10-18T12:03:25.293Z,17.25
2022-10-18T12:05:52.931Z,17.32
2022-10-18T12:08:22.260Z,17.34
2022-10-18T12:11:09.251Z,17.42
2022-10-18T12:13:54.758Z,17.44
2022-10-18T12:16:38.897Z,17.48
2022-10-18T12:19:16.294Z,17.50
2022-10-18T12:21:43.015Z,17.58
2022-10-18T12:24:13.542Z,17.61
2022-10-18T12:26:40.309Z,17.57
2022-10-18T12:29:21.199Z,17.61
2022-10-18T12:31:56.783Z,17.61
2022-10-18T12:34:23.513Z,17.65
2022-10-18T12:36:49.857Z,17.68
2022-10-18T12:39:29.129Z,17.71
2022-10-18T12:42:05.363Z,17.76
2022-10-18T12:44:33.555Z,17.77
2022-10-18T12:47:04.209Z,17.78
2022-10-18T12:49:32.489Z,17.86
2022-10-18T12:52:00.371Z,17.88
2022-10-18T12:54:28.725Z,17.89
2022-10-18T12:56:55.413Z,17.89
2022-10-18T12:59:26.336Z,17.89
2022-10-18T13:01:55.582Z,17.90
2022-10-18T13:04:27.897Z,17.92
2022-10-18T13:06:57.294Z,17.94
2022-10-18T13:09:37.203Z,17.90
2022-10-18T13:12:09.668Z,17.93
2022-10-18T13:15:05.898Z,17.88
2022-10-18T13:17:47.956Z,17.91
2022-10-18T13:20:25.970Z,17.89
2022-10-18T13:23:05.187Z,17.87
2022-10-18T13:25:50.152Z,17.88
2022-10-18T13:28:22.564Z,17.92
2022-10-18T13:31:07.781Z,17.93
2022-10-18T13:33:35.578Z,17.91
2022-10-18T13:36:01.989Z,17.94
2022-10-18T13:38:33.975Z,17.92
2022-10-18T13:41:04.704Z,17.93
2022-10-18T13:43:52.445Z,17.92
2022-10-18T13:46:19.708Z,17.93
2022-10-18T13:48:50.120Z,17.90
2022-10-18T13:51:16.473Z,17.90
2022-10-18T13:53:55.369Z,17.94
2022-10-18T13:56:45.119Z,17.95
2022-10-18T13:59:23.765Z,17.94
2022-10-18T14:02:05.650Z,17.90
2022-10-18T14:04:32.069Z,17.87
2022-10-18T14:07:02.242Z,17.87
2022-10-18T14:09:43.811Z,17.86
2022-10-18T14:12:14.189Z,17.84
2022-10-18T14:14:46.214Z,17.83
2022-10-18T14:17:31.536Z,17.84
2022-10-18T14:20:07.134Z,17.82
2022-10-18T14:22:41.054Z,17.75
2022-10-18T14:25:36.930Z,17.58
2022-10-18T14:28:11.363Z,17.47
2022-10-18T14:30:57.977Z,17.37
2022-10-18T14:33:25.575Z,17.29
2022-10-18T14:36:03.433Z,17.25
2022-10-18T14:38:30.161Z,17.20
2022-10-18T14:41:25.663Z,17.14
2022-10-18T14:43:53.226Z,17.02
2022-10-18T14:46:27.275Z,16.92
2022-10-18T14:48:55.489Z,16.79
2022-10-18T14:51:22.090Z,16.66
2022-10-18T14:53:49.018Z,16.53
2022-10-18T14:56:26.542Z,16.39
2022-10-18T14:58:54.017Z,16.30
2022-10-18T15:01:21.471Z,16.22
2022-10-18T15:03:48.212Z,16.10
2022-10-18T15:06:19.369Z,15.94
2022-10-18T15:08:47.766Z,15.86
2022-10-18T15:11:15.345Z,15.83
2022-10-18T15:13:46.672Z,15.82
2022-10-18T15:16:18.065Z,15.65
2022-10-18T15:18:48.996Z,15.57
2022-10-18T15:21:21.551Z,15.42
2022-10-18T15:23:48.363Z,15.29
2022-10-18T15:26:16.313Z,15.24
2022-10-18T15:28:51.505Z,15.18
2022-10-18T15:31:25.196Z,15.11
2022-10-18T15:33:52.468Z,15.04
2022-10-18T15:36:29.556Z,14.92
2022-10-18T15:39:14.617Z,14.61
2022-10-18T15:41:48.854Z,14.49
2022-10-18T15:44:21.262Z,14.45
2022-10-18T15:46:48.592Z,14.43
2022-10-18T15:49:24.410Z,14.40
2022-10-18T15:51:55.665Z,14.29
2022-10-18T15:54:31.240Z,14.18
2022-10-18T15:56:58.049Z,14.11
2022-10-18T15:59:26.470Z,14.03
2022-10-18T16:01:53.043Z,13.94
2022-10-18T16:04:23.004Z,13.86
2022-10-18T16:06:49.405Z,13.77
2022-10-18T16:09:16.872Z,13.66
2022-10-18T16:11:43.651Z,13.59
2022-10-18T16:14:10.082Z,13.53
2022-10-18T16:16:36.476Z,13.45
2022-10-18T16:19:03.619Z,13.35
2022-10-18T16:21:31.663Z,13.29
2022-10-18T16:23:58.194Z,13.24
2022-10-18T16:26:24.996Z,13.17
2022-10-18T16:28:51.484Z,13.11
2022-10-18T16:31:19.672Z,13.01
2022-10-18T16:33:46.337Z,12.95
2022-10-18T16:36:32.074Z,12.88
2022-10-18T16:39:01.172Z,12.80
2022-10-18T16:41:27.848Z,12.73
2022-10-18T16:43:54.318Z,12.69
2022-10-18T16:46:27.453Z,12.58
2022-10-18T16:48:54.238Z,12.46
2022-10-18T16:51:20.635Z,12.42
2022-10-18T16:53:47.479Z,12.40
2022-10-18T16:56:21.351Z,12.36
2022-10-18T16:58:48.231Z,12.30
2022-10-18T17:01:16.660Z,12.24
2022-10-18T17:03:43.670Z,12.15
2022-10-18T17:06:30.587Z,12.08
2022-10-18T17:08:57.354Z,11.99
2022-10-18T17:11:24.718Z,11.92
2022-10-18T17:13:51.094Z,11.85
2022-10-18T17:19:01.074Z,11.80
2022-10-18T17:21:28.268Z,11.76
2022-10-18T17:23:54.703Z,11.71
2022-10-18T17:26:30.538Z,11.65
2022-10-18T17:29:01.805Z,11.56
2022-10-18T17:31:29.142Z,11.49
2022-10-18T17:33:55.566Z,11.43
2022-10-18T17:36:22.188Z,11.33
2022-10-18T17:38:52.023Z,11.32
2022-10-18T17:41:18.477Z,11.32
2022-10-18T17:43:44.858Z,11.29
2022-10-18T17:46:14.542Z,11.26
2022-10-18T17:48:41.414Z,11.21
2022-10-18T17:51:08.642Z,11.16
2022-10-18T17:53:35.124Z,11.12
2022-10-18T17:56:02.976Z,11.08
2022-10-18T17:58:29.722Z,11.05
2022-10-18T18:00:56.082Z,11.03
2022-10-18T18:03:22.489Z,10.97
2022-10-18T18:05:49.028Z,10.93
2022-10-18T18:08:15.453Z,10.91
2022-10-18T18:10:42.073Z,10.86
2022-10-18T18:13:08.486Z,10.80
2022-10-18T18:15:35.037Z,10.75
2022-10-18T18:18:01.479Z,10.70
2022-10-18T18:20:27.930Z,10.66
2022-10-18T18:22:54.339Z,10.62
2022-10-18T18:25:20.729Z,10.56
2022-10-18T18:27:47.120Z,10.52
2022-10-18T18:30:14.455Z,10.49
2022-10-18T18:32:40.818Z,10.51
2022-10-18T18:35:07.409Z,10.48
2022-10-18T18:37:33.925Z,10.44
2022-10-18T18:40:00.329Z,10.41
2022-10-18T18:42:26.754Z,10.35
2022-10-18T18:44:53.187Z,10.32
2022-10-18T18:47:21.708Z,10.29
2022-10-18T18:49:48.467Z,10.25
2022-10-18T18:52:14.890Z,10.21
2022-10-18T18:54:41.340Z,10.17
2022-10-18T18:57:07.804Z,10.08
2022-10-18T18:59:34.336Z,10.04
2022-10-18T19:02:00.760Z,10.01
2022-10-18T19:04:29.004Z,9.98
2022-10-18T19:06:55.408Z,9.91
2022-10-18T19:09:22.884Z,9.85
2022-10-18T19:11:50.444Z,9.81
2022-10-18T19:14:16.895Z,9.77
2022-10-18T19:16:46.630Z,9.73
2022-10-18T19:19:14.578Z,9.68
2022-10-18T19:21:42.539Z,9.65
2022-10-18T19:24:08.941Z,9.64
2022-10-18T19:26:38.609Z,9.63
2022-10-18T19:29:07.053Z,9.62
2022-10-18T19:31:35.010Z,9.60
2022-10-18T19:34:05.256Z,9.58
2022-10-18T19:36:31.776Z,9.53
2022-10-18T19:38:58.197Z,9.50
2022-10-18T19:43:52.337Z,9.51
2022-10-18T19:46:18.819Z,9.48
2022-10-18T19:48:45.264Z,9.45
2022-10-18T19:51:14.407Z,9.41
2022-10-18T19:53:44.476Z,9.38
2022-10-18T19:56:16.318Z,9.38
2022-10-18T19:58:42.714Z,9.37
2022-10-18T20:01:09.129Z,9.37
2022-10-18T20:03:35.695Z,9.35
2022-10-18T20:06:02.730Z,9.35
2022-10-18T20:08:30.934Z,9.34
2022-10-18T20:11:01.232Z,9.33
2022-10-18T20:13:27.651Z,9.31
2022-10-18T20:15:54.129Z,9.28
2022-10-18T20:18:20.738Z,9.25
2022-10-18T20:20:48.397Z,9.22
2022-10-18T20:23:15.898Z,9.16
2022-10-18T20:25:42.297Z,9.11
2022-10-18T20:28:08.671Z,9.11
2022-10-18T20:30:35.054Z,9.12
2022-10-18T20:33:01.480Z,9.12
2022-10-18T20:35:27.906Z,9.13
2022-10-18T20:37:54.265Z,9.17
2022-10-18T20:40:20.633Z,9.15
2022-10-18T20:42:47.170Z,9.15
2022-10-18T20:45:13.559Z,9.15
2022-10-18T20:47:39.946Z,9.16
2022-10-18T20:50:06.613Z,9.18
2022-10-18T20:52:33.000Z,9.19
2022-10-18T20:54:59.360Z,9.22
2022-10-18T20:57:25.742Z,9.26
2022-10-18T20:59:52.141Z,9.31
2022-10-18T21:02:18.647Z,9.29
2022-10-18T21:04:45.069Z,9.31
2022-10-18T21:07:11.569Z,9.33
2022-10-18T21:09:37.961Z,9.37
2022-10-18T21:12:04.539Z,9.35
2022-10-18T21:14:31.132Z,9.35
2022-10-18T21:16:57.549Z,9.38
2022-10-18T21:19:25.300Z,9.42
2022-10-18T21:21:54.365Z,9.45
2022-10-18T21:24:21.440Z,9.47
2022-10-18T21:26:48.283Z,9.49
2022-10-18T21:29:19.330Z,9.52
2022-10-18T21:31:48.389Z,9.55
2022-10-18T21:34:16.413Z,9.58
2022-10-18T21:36:43.786Z,9.63
2022-10-18T21:39:14.926Z,9.65
2022-10-18T21:41:42.011Z,9.66
2022-10-18T21:44:10.711Z,9.63
2022-10-18T21:46:39.198Z,9.65
2022-10-18T21:49:06.348Z,9.63
2022-10-18T21:51:32.778Z,9.62
2022-10-18T21:53:59.212Z,9.63
2022-10-18T21:56:27.231Z,9.62
2022-10-18T21:58:53.762Z,9.65
2022-10-18T22:01:21.430Z,9.64
2022-10-18T22:03:48.568Z,9.66
2022-10-18T22:06:16.588Z,9.70
2022-10-18T22:08:48.810Z,9.65
2022-10-18T22:11:16.011Z,9.67
2022-10-18T22:13:43.038Z,9.62
2022-10-18T22:16:11.369Z,9.64
2022-10-18T22:18:37.753Z,9.67
2022-10-18T22:21:05.943Z,9.67
2022-10-18T22:23:33.210Z,9.69
2022-10-18T22:26:04.229Z,9.68
2022-10-18T22:28:30.629Z,9.72
2022-10-18T22:30:57.011Z,9.73
2022-10-18T22:33:23.411Z,9.72
2022-10-18T22:35:50.157Z,9.77
2022-10-18T22:38:16.555Z,9.81
2022-10-18T22:40:42.982Z,9.81
2022-10-18T22:43:09.388Z,9.86
2022-10-18T22:45:35.750Z,9.86
2022-10-18T22:48:02.107Z,9.89
2022-10-18T22:50:28.532Z,9.95
2022-10-18T22:52:54.894Z,9.94
2022-10-18T22:55:21.283Z,9.96
2022-10-18T22:57:47.641Z,9.96
2022-10-18T23:00:14.340Z,9.92
2022-10-18T23:02:40.772Z,9.94
2022-10-18T23:05:07.391Z,9.93
2022-10-18T23:07:33.770Z,9.97
2022-10-18T23:10:00.178Z,10.01
2022-10-18T23:12:26.579Z,10.02
2022-10-18T23:14:52.945Z,10.04
2022-10-18T23:17:19.320Z,10.03
2022-10-18T23:19:45.684Z,10.08
2022-10-18T23:22:15.050Z,10.14
2022-10-18T23:24:41.412Z,10.18
2022-10-18T23:27:08.216Z,10.22
2022-10-18T23:29:34.595Z,10.25
2022-10-18T23:32:00.948Z,10.23
2022-10-18T23:34:27.312Z,10.26
2022-10-18T23:36:53.687Z,10.28
2022-10-18T23:39:20.075Z,10.31
2022-10-18T23:41:46.445Z,10.33
2022-10-18T23:44:12.857Z,10.31
2022-10-18T23:46:39.220Z,10.31
2022-10-18T23:49:05.789Z,10.34
2022-10-18T23:51:32.182Z,10.37
2022-10-18T23:53:58.582Z,10.38
2022-10-18T23:56:24.965Z,10.40
2022-10-18T23:58:51.410Z,10.41
